Historyczne dane pomiarowe

Dodano dane terminowe – wersja testowa.

Dane z okresu 1951-2019

Wersja bazy: 1.34 [2019-03-16, lista zmian], aktualizacja planowana na 2019-04-15

Dane meteo z obszaru Polski uzyskane na podstawie danych udostępnionych przez Instytut Meteorologii i Gospodarki Wodnej – Państwowy Instytut Badawczy.

 

Wybierz Datę:    

       

TemperaturaWilgotnośćWiatrCiśnienieOpadyŚniegCzas trwania zjawisk
 Stacja t tx tn tng RH VA  wxwx mslp ppp RRR   cm mm wxwxwxwxwxwxwx
1994-08-14 10.9 16.2 7.5- 78.8- 1.0 4.0---- 0.0------------
1994-08-13 11.5 17.7 7.8- 91.8- 6.0 3.7---- 0.2------------
1994-08-12 10.7 15.4 9.4- 99.8- 8.0 5.3---- 14.9------------
1994-08-11 16.1 20.8 11.4- 96.3- 7.3 2.3---- 31.0------------
1994-08-10 15.8 24.3 8.5- 77.3- 1.0 4.0---- 5.2------------
1994-08-09 14.2 22.2 11.4- 98.8- 6.0 3.0---- 8.4------------
1994-08-08 21.9 26.8 18.7- 82.5- 6.7 2.3---- 2.4------------
1994-08-07 24.4 30.1 21.6- 71.8- 4.0 2.0---- 0.8------------
1994-08-06 23.3 32.5 15.9- 52.5- 1.0 1.7---- 0.0------------
1994-08-05 18.4 23.3 15.3- 70.5- 1.0 3.0---- 0.0------------
1994-08-04 21.6 27.1 18.9- 74.8- 1.0 3.0---- 0.0------------
1994-08-03 23.6 28.4 21.8- 67.3- 0.0 3.7---- 0.0------------
1994-08-02 26.4 30.9 23.8- 44.5- 1.3 2.7---- 0.0------------
1994-08-01 29.7 33.6 21.9- 43.5- 4.3 3.0---- 0.0------------
1994-07-31 28.9 32.5 27.0- 45.0- 1.0 2.0---- 0.0------------
1994-07-30 29.4 33.6 24.3- 38.8- 0.0 2.3---- 0.0------------
1994-07-29 27.6 32.3 22.9- 39.5- 0.0 2.3---- 0.0------------
1994-07-28 26.3 31.3 23.5- 45.0- 0.0 2.7---- 0.0------------
1994-07-27 26.6 33.2 23.0- 42.5- 0.0 2.7---- 0.0------------
1994-07-26 26.6 31.3 22.1- 47.3- 0.0 4.0---- 0.0------------
1994-07-25 25.0 29.9 21.2- 52.8- 0.0 3.0---- 0.0------------
1994-07-24 23.3 28.3 18.8- 53.8- 0.0 3.7---- 0.0------------
1994-07-23 21.9 27.0 18.1- 53.8- 0.0 4.7---- 0.0------------
1994-07-22 21.5 27.0 17.4- 52.8- 0.0 4.0---- 0.0------------
1994-07-21 18.0 23.5 10.4- 65.3- 0.7 4.0---- 0.0------------
1994-07-20 15.8 20.6 10.2- 74.5- 0.7 4.0---- 0.0------------
1994-07-19 17.2 21.0 14.6- 88.0- 1.7 5.0---- 0.0------------
1994-07-18 18.6 23.0 14.6- 90.5- 4.3 3.7---- 0.0------------
1994-07-17 21.2 26.9 16.9- 73.8- 4.3 3.3---- 2.1------------
1994-07-16 21.5 27.8 19.4- 69.3- 4.0 3.0---- 0.2------------
1994-07-15 20.8 24.9 17.0- 75.5- 0.0 2.7---- 0.0------------
1994-07-14 21.6 26.9 17.4- 63.3- 1.3 3.3---- 0.0------------
1994-07-13 19.7 23.3 16.7- 64.3- 1.0 6.0---- 0.0------------
1994-07-12 14.2 20.1 9.8- 82.3- 5.7 6.0---- 0.0------------
1994-07-11 13.8 19.1 7.6- 90.3- 3.0 4.0---- 0.0------------
1994-07-10 6.8 11.0 4.3- 96.5- 8.0 3.7---- 1.4------------
1994-07-09 9.0 12.2 6.4- 92.3- 8.0 5.3---- 20.6------------
1994-07-08 10.1 15.1 5.1- 81.5- 4.3 4.3---- 0.1------------
1994-07-07 17.1 22.9 12.7- 68.5- 7.3 6.7---- 14.3------------
1994-07-06 16.8 23.1 10.4- 70.8- 0.7 5.3---- 0.0------------
1994-07-05 19.9 24.0 16.2- 62.0- 4.7 3.3---- 0.2------------
1994-07-04 23.8 27.6 18.7- 41.5- 0.0 6.0---- 0.0------------
1994-07-03 19.5 25.9 14.4- 54.3- 0.0 5.3---- 0.0------------
1994-07-02 18.0 23.5 13.0- 53.5- 0.0 2.0---- 0.0------------
1994-07-01 15.7 21.9 9.4- 72.8- 1.0 3.0---- 0.0------------
1994-06-30 18.7 23.2 15.5- 97.5- 5.3 6.0---- 0.0------------
1994-06-29 23.1 28.5 18.8- 78.3- 0.0 6.0---- 0.6------------
1994-06-28 22.7 27.9 19.7- 75.3- 0.7 6.0---- 0.0------------
1994-06-27 24.3 28.4 20.3- 71.3- 2.7 4.3---- 0.0------------
1994-06-26 22.2 28.9 16.7- 55.3- 0.7 6.0---- 0.0------------
1994-06-25 16.4 22.2 10.5- 58.5- 0.0 5.3---- 0.0------------
1994-06-24 12.8 18.0 7.9- 49.8- 0.3 4.0---- 0.0------------
1994-06-23 13.3 18.4 9.8- 75.8- 2.7 10.0---- 0.0------------
1994-06-22 17.2 26.1 12.2- 64.8- 4.7 5.0---- 0.0------------
1994-06-21 13.3 18.3 8.8- 71.8- 3.0 2.3---- 0.0------------
1994-06-20 16.1 21.9 13.3- 76.8- 4.0 4.7---- 0.0------------
1994-06-19 16.5 24.7 8.4- 64.5- 3.7 4.7---- 0.0------------
1994-06-18 11.5 18.5 5.3- 67.5- 3.0 4.7---- 8.0------------
1994-06-17 6.5 11.2 3.4- 91.5- 6.7 5.3---- 0.0------------
1994-06-16 11.0 14.9 6.5- 75.0- 1.0 6.0---- 2.8------------
295.0 ms

 

Źródłem pochodzenia danych jest Instytut Meteorologii i Gospodarki Wodnej – Państwowy Instytut Badawczy. Dane Instytutu Meteorologii i Gospodarki Wodnej – Państwowego Instytutu Badawczego zostały przetworzone.

Dane źródłowe można odnaleźć na stronie https://dane.imgw.pl